Time;durP1;ratioP1;P1;durP2;ratioP2;P2;SDS_P1;SDS_P2;PMS_P1;PMS_P2;Temp;Humidity;BMP_temperature;BMP_pressure;BME280_temperature;BME280_humidity;BME280_pressure;Samples;Min_cycle;Max_cycle;Signal;HPM_P1;HPM_P2
2021/03/01 00:01:03;;;;;;;0.88;0.70;;;23.00;34.20;;;;;;5026925;28;20029;-55
2021/03/01 00:03:29;;;;;;;1.02;0.60;;;22.90;34.10;;;;;;5027751;28;20468;-55
2021/03/01 00:05:55;;;;;;;0.70;0.70;;;22.90;34.10;;;;;;5025047;28;20044;-52
2021/03/01 00:08:21;;;;;;;1.60;0.73;;;22.90;34.10;;;;;;5026088;28;20120;-57
2021/03/01 00:10:46;;;;;;;1.00;0.75;;;22.90;34.10;;;;;;5027798;28;20029;-56
2021/03/01 00:13:12;;;;;;;1.10;0.65;;;22.90;34.10;;;;;;5026420;28;20438;-53
2021/03/01 00:15:38;;;;;;;1.00;0.63;;;22.90;34.10;;;;;;5028137;28;20026;-57
2021/03/01 00:18:04;;;;;;;1.13;0.80;;;22.90;34.80;;;;;;5025469;28;20034;-55
2021/03/01 00:20:33;;;;;;;0.90;0.60;;;22.90;34.10;;;;;;5027084;28;20029;-61
2021/03/01 00:22:59;;;;;;;1.40;0.88;;;22.90;34.10;;;;;;5028838;28;20050;-57
2021/03/01 00:25:25;;;;;;;1.00;0.70;;;22.90;34.10;;;;;;5024154;28;20029;-57
2021/03/01 00:27:50;;;;;;;1.33;0.73;;;22.90;34.10;;;;;;5025969;28;20026;-57
2021/03/01 00:30:17;;;;;;;1.35;0.80;;;22.90;34.10;;;;;;5027430;28;20109;-57
2021/03/01 00:32:42;;;;;;;1.45;0.80;;;22.90;34.00;;;;;;5026168;28;20017;-54
2021/03/01 00:35:09;;;;;;;1.42;1.00;;;22.80;34.00;;;;;;5025932;28;20402;-55
2021/03/01 00:37:35;;;;;;;1.02;0.77;;;22.90;34.10;;;;;;5024191;28;20033;-59
2021/03/01 00:40:02;;;;;;;1.45;0.77;;;22.90;34.00;;;;;;5026820;28;20029;-60
2021/03/01 00:42:28;;;;;;;1.50;0.77;;;22.80;34.00;;;;;;5024336;28;20446;-60
2021/03/01 00:44:54;;;;;;;1.30;0.85;;;22.80;34.00;;;;;;5026706;28;20049;-58
2021/03/01 00:47:20;;;;;;;1.35;0.98;;;22.90;34.10;;;;;;5023808;28;20489;-58
2021/03/01 00:49:46;;;;;;;2.75;0.90;;;22.80;34.00;;;;;;5025283;28;20026;-57
2021/03/01 00:52:11;;;;;;;1.38;0.90;;;22.80;34.00;;;;;;5024976;28;20042;-55
2021/03/01 00:54:38;;;;;;;1.30;0.85;;;22.80;34.00;;;;;;5026580;28;20076;-55
2021/03/01 00:57:05;;;;;;;0.80;0.70;;;22.80;34.00;;;;;;5024593;28;20518;-55
2021/03/01 00:59:31;;;;;;;1.35;1.00;;;22.80;34.10;;;;;;5025003;28;20029;-58
2021/03/01 01:02:05;;;;;;;1.65;0.90;;;22.80;34.00;;;;;;5024441;28;20045;-55
2021/03/01 01:04:32;;;;;;;0.77;0.60;;;22.80;34.10;;;;;;5023000;28;20030;-59
2021/03/01 01:06:58;;;;;;;1.30;0.80;;;22.80;34.10;;;;;;5024754;28;20461;-57
2021/03/01 01:09:24;;;;;;;1.38;0.90;;;22.80;34.10;;;;;;5025380;28;20029;-54
2021/03/01 01:11:49;;;;;;;1.30;0.90;;;22.80;34.10;;;;;;5025901;28;20033;-58
2021/03/01 01:14:15;;;;;;;2.58;1.02;;;22.80;34.10;;;;;;5022586;28;20104;-56
2021/03/01 01:16:41;;;;;;;1.70;1.35;;;22.80;34.70;;;;;;5025418;28;20052;-55
2021/03/01 01:19:08;;;;;;;1.42;1.02;;;22.80;34.10;;;;;;5025386;28;20033;-58
2021/03/01 01:21:34;;;;;;;1.38;0.93;;;22.80;34.10;;;;;;5024849;28;20022;-56
2021/03/01 01:24:00;;;;;;;1.30;0.93;;;22.70;34.00;;;;;;5025461;28;20049;-57
2021/03/01 01:26:25;;;;;;;1.23;0.90;;;22.70;34.00;;;;;;5024136;28;20111;-56
2021/03/01 01:28:51;;;;;;;0.98;0.85;;;22.70;34.10;;;;;;5024963;28;20329;-55
2021/03/01 01:31:17;;;;;;;1.17;1.08;;;22.70;34.00;;;;;;5022673;28;20091;-60
2021/03/01 01:33:43;;;;;;;1.10;1.00;;;22.70;34.00;;;;;;5027169;28;20042;-57
2021/03/01 01:36:09;;;;;;;1.17;0.93;;;22.70;34.00;;;;;;5023791;28;20025;-58
2021/03/01 01:38:35;;;;;;;1.50;1.17;;;22.70;34.00;;;;;;5023759;28;20034;-60
2021/03/01 01:41:01;;;;;;;1.23;0.90;;;22.70;34.00;;;;;;5026298;28;20095;-53
2021/03/01 01:43:27;;;;;;;1.17;0.98;;;22.70;34.00;;;;;;5024235;28;20052;-55
2021/03/01 01:45:53;;;;;;;1.17;1.00;;;22.70;34.00;;;;;;5020559;28;20025;-56
2021/03/01 01:48:19;;;;;;;1.40;1.00;;;22.70;34.10;;;;;;5024573;28;20048;-60
2021/03/01 01:50:44;;;;;;;1.50;0.95;;;22.70;34.10;;;;;;5023816;28;20357;-56
2021/03/01 01:53:11;;;;;;;1.50;1.00;;;22.70;34.10;;;;;;5024871;28;20115;-57
2021/03/01 01:55:37;;;;;;;1.30;1.17;;;22.70;34.10;;;;;;5025408;28;20112;-60
2021/03/01 01:58:02;;;;;;;1.20;1.10;;;22.70;34.10;;;;;;5025088;28;20477;-58
2021/03/01 02:03:19;;;;;;;2.00;1.23;;;22.70;34.10;;;;;;5023280;28;20049;-55
2021/03/01 02:05:47;;;;;;;2.20;1.50;;;22.70;34.10;;;;;;5024633;28;20030;-53
2021/03/01 02:08:21;;;;;;;1.60;1.15;;;22.60;34.00;;;;;;5026297;28;20057;-54
2021/03/01 02:11:02;;;;;;;3.40;1.10;;;22.60;34.00;;;;;;5024552;28;20048;-58
2021/03/01 02:13:48;;;;;;;1.70;1.10;;;22.70;34.10;;;;;;5023921;28;20480;-54
2021/03/01 02:16:20;;;;;;;1.27;1.08;;;22.60;34.10;;;;;;5022687;28;20109;-57
2021/03/01 02:18:46;;;;;;;1.92;1.27;;;22.60;34.10;;;;;;5021989;28;20033;-57
2021/03/01 02:21:13;;;;;;;1.33;1.10;;;22.60;34.10;;;;;;5022610;28;20449;-55
2021/03/01 02:23:41;;;;;;;1.40;1.20;;;22.60;34.10;;;;;;5021618;28;20044;-56
2021/03/01 02:26:20;;;;;;;1.38;1.10;;;22.60;34.10;;;;;;5023410;28;20038;-59
2021/03/01 02:28:53;;;;;;;1.92;1.30;;;22.60;34.10;;;;;;5023747;28;20057;-54
2021/03/01 02:31:23;;;;;;;1.65;1.30;;;22.60;34.10;;;;;;5022124;28;20348;-56
2021/03/01 02:33:52;;;;;;;1.45;1.13;;;22.60;34.10;;;;;;5027475;28;20034;-57
2021/03/01 02:36:23;;;;;;;2.00;1.38;;;22.60;34.10;;;;;;5023232;28;20025;-56
2021/03/01 02:38:51;;;;;;;1.50;1.20;;;22.60;34.10;;;;;;5020544;28;20064;-56
2021/03/01 02:41:18;;;;;;;1.42;1.33;;;22.60;34.10;;;;;;5022484;28;20091;-57
2021/03/01 02:43:45;;;;;;;1.20;1.10;;;22.60;34.20;;;;;;5026894;28;20442;-52
2021/03/01 02:46:11;;;;;;;1.35;1.25;;;22.60;34.20;;;;;;5025143;28;20029;-53
2021/03/01 02:48:39;;;;;;;1.27;1.00;;;22.60;34.20;;;;;;5022175;28;20046;-54
2021/03/01 02:51:06;;;;;;;1.80;1.40;;;22.60;34.20;;;;;;5023665;28;20430;-57
2021/03/01 02:53:34;;;;;;;1.40;1.20;;;22.60;34.20;;;;;;5022790;28;20086;-56
2021/03/01 02:56:01;;;;;;;1.33;1.20;;;22.50;34.10;;;;;;5023681;28;20353;-53
2021/03/01 02:58:30;;;;;;;1.17;1.08;;;22.50;34.10;;;;;;5021382;28;20141;-61
2021/03/01 03:01:00;;;;;;;1.40;1.30;;;22.50;34.10;;;;;;5022235;28;20071;-60
2021/03/01 03:03:27;;;;;;;1.88;1.48;;;22.50;34.10;;;;;;5019281;28;20143;-54
2021/03/01 03:05:54;;;;;;;1.92;1.08;;;22.50;34.10;;;;;;5022540;28;20030;-58
2021/03/01 03:08:20;;;;;;;1.67;1.30;;;22.50;34.20;;;;;;5023020;28;20095;-56
2021/03/01 03:10:48;;;;;;;1.23;1.10;;;22.50;34.20;;;;;;5024042;28;20089;-54
2021/03/01 03:13:15;;;;;;;1.33;1.23;;;22.60;34.30;;;;;;5021909;28;20068;-52
2021/03/01 03:15:44;;;;;;;1.17;1.08;;;22.50;34.30;;;;;;5021676;28;20030;-60
2021/03/01 03:18:12;;;;;;;1.63;1.30;;;22.50;34.20;;;;;;5022390;28;20044;-58
2021/03/01 03:20:38;;;;;;;1.48;1.20;;;22.50;34.30;;;;;;5022436;28;20034;-56
2021/03/01 03:23:06;;;;;;;1.50;1.30;;;22.50;34.20;;;;;;5021773;28;20129;-60
2021/03/01 03:25:32;;;;;;;3.38;1.25;;;22.50;34.30;;;;;;5023846;28;20041;-59
2021/03/01 03:27:57;;;;;;;1.48;1.30;;;22.50;34.90;;;;;;5023664;28;20037;-55
2021/03/01 03:30:24;;;;;;;1.52;1.42;;;22.50;34.30;;;;;;5023197;28;20029;-57
2021/03/01 03:32:52;;;;;;;1.60;1.20;;;22.50;34.30;;;;;;5024393;28;20105;-57
2021/03/01 03:35:18;;;;;;;1.50;1.20;;;22.50;34.30;;;;;;5021806;28;20029;-59
2021/03/01 03:37:50;;;;;;;1.33;1.23;;;22.50;34.30;;;;;;5022810;28;20045;-57
2021/03/01 03:40:18;;;;;;;1.88;1.38;;;22.50;34.30;;;;;;5023667;28;20356;-56
2021/03/01 03:42:44;;;;;;;1.45;1.13;;;22.50;34.30;;;;;;5006034;28;20045;-55
2021/03/01 03:45:13;;;;;;;1.52;1.20;;;22.50;34.30;;;;;;5023074;28;20053;-58
2021/03/01 03:47:43;;;;;;;1.27;1.15;;;22.40;34.30;;;;;;5022621;28;20054;-55
2021/03/01 03:50:11;;;;;;;1.92;1.45;;;22.50;34.30;;;;;;5024827;28;20030;-61
2021/03/01 03:52:42;;;;;;;1.30;1.20;;;22.50;34.30;;;;;;5022101;28;20100;-58
2021/03/01 03:55:13;;;;;;;1.20;1.10;;;22.40;34.20;;;;;;5025363;28;20512;-56
2021/03/01 03:57:43;;;;;;;1.30;1.20;;;22.40;34.20;;;;;;5020756;28;20104;-54
2021/03/01 04:00:11;;;;;;;1.60;1.50;;;22.40;34.30;;;;;;5029349;28;20080;-59
2021/03/01 04:02:41;;;;;;;1.88;1.33;;;22.40;34.30;;;;;;5022810;28;20045;-56
2021/03/01 04:05:09;;;;;;;1.55;1.40;;;22.40;34.30;;;;;;5022926;28;20022;-56
2021/03/01 04:07:38;;;;;;;1.60;1.38;;;22.40;34.20;;;;;;5022530;28;20107;-57
2021/03/01 04:10:07;;;;;;;2.20;1.45;;;22.40;34.20;;;;;;5021035;28;20606;-54
2021/03/01 04:12:36;;;;;;;1.40;1.20;;;22.40;34.20;;;;;;5020451;28;20114;-55
2021/03/01 04:15:03;;;;;;;1.55;1.20;;;22.40;34.20;;;;;;5021973;28;20025;-59
2021/03/01 04:17:31;;;;;;;1.85;1.42;;;22.40;34.30;;;;;;5021765;28;20034;-56
2021/03/01 04:19:58;;;;;;;2.85;1.58;;;22.40;34.90;;;;;;5022417;28;20044;-55
2021/03/01 04:22:26;;;;;;;1.33;1.20;;;22.40;34.30;;;;;;5024283;28;20106;-56
2021/03/01 04:24:54;;;;;;;1.10;0.90;;;22.40;34.30;;;;;;5024485;28;20142;-58
2021/03/01 04:27:20;;;;;;;1.13;1.02;;;22.40;34.30;;;;;;5024797;28;20346;-54
2021/03/01 04:29:48;;;;;;;1.10;1.00;;;22.40;34.30;;;;;;5026963;28;20026;-56
2021/03/01 04:32:15;;;;;;;2.03;1.40;;;22.40;34.90;;;;;;5024433;28;20468;-57
2021/03/01 04:34:41;;;;;;;1.67;1.45;;;22.40;34.30;;;;;;5028032;28;20021;-57
2021/03/01 04:37:06;;;;;;;1.17;1.10;;;22.40;34.30;;;;;;5027151;28;20117;-57
2021/03/01 04:39:33;;;;;;;1.48;1.25;;;22.40;34.30;;;;;;5026571;28;20030;-58
2021/03/01 04:41:59;;;;;;;1.40;1.17;;;22.40;34.30;;;;;;5026454;28;20048;-57
2021/03/01 04:44:24;;;;;;;1.30;1.20;;;22.40;34.30;;;;;;5025612;28;20059;-58
2021/03/01 04:46:53;;;;;;;1.65;1.30;;;22.40;34.30;;;;;;5020730;28;20034;-60
2021/03/01 04:49:22;;;;;;;1.30;1.20;;;22.40;34.30;;;;;;5024511;28;20025;-60
2021/03/01 04:51:49;;;;;;;1.65;1.35;;;22.40;34.30;;;;;;5028437;28;20036;-59
2021/03/01 04:54:17;;;;;;;1.50;1.33;;;22.40;34.30;;;;;;5023724;28;20034;-54
2021/03/01 04:56:44;;;;;;;1.35;1.25;;;22.30;34.20;;;;;;5026892;28;20033;-55
2021/03/01 04:59:17;;;;;;;1.25;1.15;;;22.40;34.30;;;;;;5026083;28;20036;-56
2021/03/01 05:01:44;;;;;;;1.67;1.10;;;22.30;34.20;;;;;;5023106;28;20105;-51
2021/03/01 05:04:11;;;;;;;1.20;1.10;;;22.30;34.20;;;;;;5025095;28;20037;-50
2021/03/01 05:06:38;;;;;;;1.58;1.40;;;22.40;34.30;;;;;;5026793;28;20136;-51
2021/03/01 05:09:05;;;;;;;1.48;1.30;;;22.30;34.20;;;;;;5025128;28;20030;-53
2021/03/01 05:11:36;;;;;;;1.33;1.15;;;22.30;34.20;;;;;;5024766;28;20364;-50
2021/03/01 05:14:04;;;;;;;1.35;1.17;;;22.30;34.20;;;;;;5024629;28;20036;-53
2021/03/01 05:16:30;;;;;;;1.17;1.08;;;22.30;34.30;;;;;;5025667;28;20033;-49
2021/03/01 05:18:57;;;;;;;1.38;1.27;;;22.30;34.20;;;;;;5027184;28;20030;-58
2021/03/01 05:21:23;;;;;;;2.22;1.20;;;22.30;34.30;;;;;;5024360;28;20032;-58
2021/03/01 05:23:50;;;;;;;1.45;1.20;;;22.30;34.30;;;;;;5021898;28;20053;-58
2021/03/01 05:26:17;;;;;;;1.58;1.45;;;22.30;34.30;;;;;;5023768;28;20037;-59
2021/03/01 05:28:43;;;;;;;1.30;1.10;;;22.30;34.30;;;;;;5025553;28;20037;-58
2021/03/01 05:31:09;;;;;;;1.20;1.00;;;22.30;34.30;;;;;;5028591;28;20037;-52
2021/03/01 05:33:35;;;;;;;1.40;1.20;;;22.30;34.20;;;;;;5032990;28;20029;-51
2021/03/01 05:36:01;;;;;;;1.23;1.13;;;22.30;34.20;;;;;;5036549;28;20033;-54
2021/03/01 05:38:28;;;;;;;1.75;1.30;;;22.30;34.20;;;;;;5021196;28;20030;-51
2021/03/01 05:40:54;;;;;;;1.20;1.10;;;22.30;34.90;;;;;;5021165;28;20034;-51
2021/03/01 05:43:24;;;;;;;1.60;1.23;;;22.30;34.30;;;;;;5036991;28;20128;-53
2021/03/01 05:45:51;;;;;;;1.90;1.30;;;22.30;34.90;;;;;;5025532;28;20029;-53
2021/03/01 05:48:19;;;;;;;1.80;1.50;;;22.30;34.30;;;;;;5034786;28;20057;-55
2021/03/01 05:50:46;;;;;;;2.35;1.30;;;22.20;34.20;;;;;;5035050;28;20349;-58
2021/03/01 05:53:19;;;;;;;1.40;1.20;;;22.30;34.30;;;;;;5028991;28;20029;-57
2021/03/01 05:55:47;;;;;;;1.67;1.30;;;22.30;34.40;;;;;;5035162;28;20044;-59
2021/03/01 05:58:14;;;;;;;1.25;1.15;;;22.20;34.40;;;;;;5034775;28;20069;-59
2021/03/01 06:00:40;;;;;;;1.40;1.30;;;22.20;34.40;;;;;;5035317;28;20025;-59
2021/03/01 06:03:06;;;;;;;1.30;1.20;;;22.20;34.40;;;;;;5030839;28;20517;-57
2021/03/01 06:05:32;;;;;;;1.30;1.20;;;22.20;34.40;;;;;;5016681;28;20108;-55
2021/03/01 06:07:58;;;;;;;1.38;1.27;;;22.20;34.40;;;;;;5020712;28;20137;-58
2021/03/01 06:10:24;;;;;;;1.10;1.00;;;22.20;34.40;;;;;;5019136;28;20069;-57
2021/03/01 06:12:50;;;;;;;1.10;1.00;;;22.20;34.40;;;;;;5020027;28;20099;-57
2021/03/01 06:15:19;;;;;;;1.92;1.17;;;22.20;34.40;;;;;;5015555;28;20395;-58
2021/03/01 06:18:08;;;;;;;1.05;0.98;;;22.20;34.40;;;;;;5026476;28;20043;-56
2021/03/01 06:20:36;;;;;;;1.20;1.05;;;22.20;34.30;;;;;;5028438;28;20144;-56
2021/03/01 06:23:03;;;;;;;1.30;1.10;;;22.20;34.40;;;;;;5028832;28;20411;-59
2021/03/01 06:25:28;;;;;;;1.10;1.00;;;22.20;34.40;;;;;;5032723;28;20049;-56
2021/03/01 06:27:57;;;;;;;1.40;1.13;;;22.20;34.40;;;;;;5021112;28;20487;-59
2021/03/01 06:30:37;;;;;;;1.10;1.00;;;22.20;34.40;;;;;;5017016;28;20056;-57
2021/03/01 06:33:06;;;;;;;1.58;1.23;;;22.20;34.40;;;;;;5009359;28;20367;-57
2021/03/01 06:35:42;;;;;;;1.45;1.27;;;22.20;34.40;;;;;;5028525;28;20033;-57
2021/03/01 06:38:27;;;;;;;1.45;1.30;;;22.20;34.40;;;;;;5024598;28;20060;-57
2021/03/01 06:41:18;;;;;;;1.10;1.00;;;22.20;34.30;;;;;;5018557;28;20106;-59
2021/03/01 06:43:54;;;;;;;1.30;1.20;;;22.20;34.30;;;;;;5017130;28;20148;-58
2021/03/01 06:46:23;;;;;;;1.13;1.00;;;22.20;34.30;;;;;;5018245;28;20044;-57
2021/03/01 06:48:49;;;;;;;1.80;1.25;;;22.10;34.30;;;;;;5032519;28;20045;-60
2021/03/01 06:51:15;;;;;;;1.75;1.40;;;22.20;34.40;;;;;;5021813;28;20480;-55
2021/03/01 06:53:41;;;;;;;1.30;1.00;;;22.20;34.40;;;;;;5030465;28;20127;-59
2021/03/01 06:56:11;;;;;;;1.35;1.02;;;22.10;34.30;;;;;;5031688;28;20468;-56
2021/03/01 06:58:45;;;;;;;1.55;1.20;;;22.20;34.40;;;;;;5026325;28;20045;-61
2021/03/01 07:01:14;;;;;;;1.20;1.10;;;22.10;34.30;;;;;;5023387;28;20124;-59
2021/03/01 07:03:42;;;;;;;1.40;1.23;;;22.20;34.40;;;;;;5033882;28;20095;-57
2021/03/01 07:06:09;;;;;;;1.70;1.15;;;22.10;34.30;;;;;;5022951;28;20037;-55
2021/03/01 07:08:50;;;;;;;1.20;1.10;;;22.10;34.30;;;;;;5023451;28;20417;-57
2021/03/01 07:11:32;;;;;;;1.30;1.00;;;22.10;34.30;;;;;;5033491;28;20120;-57
2021/03/01 07:14:22;;;;;;;1.92;1.42;;;22.10;34.30;;;;;;5014699;28;20044;-55
2021/03/01 07:16:56;;;;;;;1.75;1.40;;;22.10;34.30;;;;;;5028229;28;20072;-60
2021/03/01 07:19:24;;;;;;;;;;;22.10;34.30;;;;;;5034935;28;20038;-55
2021/03/01 07:21:53;;;;;;;2.33;1.00;;;22.10;34.40;;;;;;5017745;28;19909;-56
2021/03/01 07:24:25;;;;;;;1.60;1.00;;;22.10;34.40;;;;;;5015688;28;20022;-54
2021/03/01 07:26:53;;;;;;;1.98;1.05;;;22.10;34.40;;;;;;5033122;28;20108;-59
2021/03/01 07:29:20;;;;;;;1.33;1.00;;;22.10;34.40;;;;;;5031524;28;20029;-53
2021/03/01 07:32:05;;;;;;;1.30;1.00;;;22.10;34.50;;;;;;5015398;28;20125;-53
2021/03/01 07:34:32;;;;;;;1.40;1.15;;;22.10;34.40;;;;;;5019707;28;20045;-57
2021/03/01 07:36:58;;;;;;;1.58;1.25;;;22.10;34.50;;;;;;5034042;28;20046;-57
2021/03/01 07:39:25;;;;;;;1.58;1.00;;;22.10;34.50;;;;;;5021500;28;20029;-59
2021/03/01 07:41:53;;;;;;;1.60;1.30;;;22.10;34.50;;;;;;5030381;28;20187;-62
2021/03/01 07:44:26;;;;;;;1.80;1.30;;;22.10;34.60;;;;;;5014055;28;20026;-61
2021/03/01 07:46:53;;;;;;;1.30;1.10;;;22.10;34.70;;;;;;5024120;28;20034;-62
2021/03/01 07:49:45;;;;;;;1.10;0.90;;;22.10;34.70;;;;;;5032567;28;20327;-62
2021/03/01 07:52:20;;;;;;;1.92;1.10;;;22.10;34.70;;;;;;5022586;28;20360;-59
2021/03/01 07:55:05;;;;;;;2.25;1.30;;;22.10;34.70;;;;;;5021117;28;20033;-62
2021/03/01 07:57:33;;;;;;;1.83;1.17;;;22.10;34.60;;;;;;5017356;28;20059;-60
2021/03/01 08:00:19;;;;;;;1.30;1.10;;;22.20;34.50;;;;;;5024211;28;20053;-59
2021/03/01 08:02:45;;;;;;;1.77;1.25;;;22.20;34.50;;;;;;5021790;28;20038;-63
2021/03/01 08:05:23;;;;;;;1.70;1.20;;;22.20;34.40;;;;;;5033678;28;20352;-61
2021/03/01 08:07:49;;;;;;;1.42;1.20;;;22.20;34.40;;;;;;5016479;28;20034;-61
2021/03/01 08:10:33;;;;;;;1.75;1.23;;;22.20;34.40;;;;;;5024876;28;20065;-60
2021/03/01 08:13:04;;;;;;;1.75;1.20;;;22.30;34.40;;;;;;5033287;28;20038;-60
2021/03/01 08:15:39;;;;;;;2.25;1.40;;;22.20;34.30;;;;;;5019044;28;20033;-61
2021/03/01 08:18:05;;;;;;;1.40;1.05;;;22.30;34.40;;;;;;5028935;28;20033;-61
2021/03/01 08:20:37;;;;;;;1.67;1.20;;;22.30;34.30;;;;;;5033315;28;20414;-61
2021/03/01 08:23:06;;;;;;;1.30;1.20;;;22.30;34.20;;;;;;5017337;28;20120;-61
2021/03/01 08:25:44;;;;;;;1.73;1.38;;;22.40;34.20;;;;;;5021763;28;20036;-60
2021/03/01 08:28:16;;;;;;;1.85;1.25;;;22.40;34.00;;;;;;5036344;28;20030;-57
2021/03/01 08:30:44;;;;;;;1.63;1.00;;;22.40;33.90;;;;;;5034634;28;20045;-57
2021/03/01 08:33:10;;;;;;;1.30;0.98;;;22.40;33.80;;;;;;5037297;28;20037;-61
2021/03/01 08:35:36;;;;;;;1.23;0.95;;;22.50;33.80;;;;;;5033620;28;20031;-59
2021/03/01 08:38:04;;;;;;;1.83;1.10;;;22.50;33.70;;;;;;5037205;28;20021;-62
2021/03/01 08:40:31;;;;;;;0.77;0.77;;;22.60;33.70;;;;;;5026281;28;20022;-64
2021/03/01 08:43:06;;;;;;;1.92;1.23;;;22.60;33.60;;;;;;5020983;28;20057;-62
2021/03/01 08:45:43;;;;;;;2.28;1.30;;;22.60;33.60;;;;;;5035475;28;20405;-63
2021/03/01 08:48:15;;;;;;;1.10;0.80;;;22.70;33.50;;;;;;5025361;28;20038;-61
2021/03/01 08:50:41;;;;;;;1.63;1.00;;;22.70;33.40;;;;;;5038224;28;20043;-61
2021/03/01 08:53:08;;;;;;;1.40;0.98;;;22.70;33.40;;;;;;5046592;28;20025;-60
2021/03/01 08:55:37;;;;;;;1.10;0.80;;;22.80;33.40;;;;;;5038163;28;20029;-62
2021/03/01 08:58:07;;;;;;;1.00;0.70;;;22.80;33.30;;;;;;5036018;28;20125;-58
2021/03/01 09:00:37;;;;;;;1.77;0.88;;;22.90;33.30;;;;;;5024597;28;20109;-59
2021/03/01 09:03:23;;;;;;;1.33;0.90;;;22.90;33.30;;;;;;5036284;28;20048;-64
2021/03/01 09:05:54;;;;;;;2.45;0.90;;;22.90;33.30;;;;;;5033490;28;20044;-61
2021/03/01 09:08:30;;;;;;;1.77;0.90;;;23.00;33.30;;;;;;5035942;28;20026;-60
2021/03/01 09:11:00;;;;;;;1.40;0.85;;;23.00;33.20;;;;;;5026734;28;20336;-60
2021/03/01 09:13:26;;;;;;;1.63;1.00;;;23.00;33.20;;;;;;5033503;28;20029;-60
2021/03/01 09:15:52;;;;;;;0.90;0.80;;;23.00;33.20;;;;;;5035523;28;20021;-61
2021/03/01 09:18:18;;;;;;;1.08;0.80;;;23.00;33.20;;;;;;5031327;28;20124;-60
2021/03/01 09:20:48;;;;;;;0.95;0.88;;;23.00;33.20;;;;;;5035016;28;20041;-60
2021/03/01 09:23:14;;;;;;;1.05;0.85;;;23.00;33.10;;;;;;5024675;28;20042;-61
2021/03/01 09:25:41;;;;;;;1.20;0.70;;;23.10;33.10;;;;;;5035780;28;20037;-61
2021/03/01 09:28:07;;;;;;;0.95;0.85;;;23.10;33.10;;;;;;5035481;28;20087;-61
2021/03/01 09:30:34;;;;;;;1.88;0.98;;;23.10;33.00;;;;;;5035315;28;20036;-61
2021/03/01 09:33:03;;;;;;;0.90;0.88;;;23.10;33.00;;;;;;5033191;28;20043;-60
2021/03/01 09:35:32;;;;;;;1.10;0.90;;;23.10;32.90;;;;;;5030223;28;20052;-62
2021/03/01 09:37:58;;;;;;;0.68;0.68;;;23.10;32.90;;;;;;5033200;28;20392;-60
2021/03/01 09:40:25;;;;;;;2.92;0.80;;;23.10;32.90;;;;;;5033615;28;20037;-65
2021/03/01 09:42:54;;;;;;;4.18;2.03;;;23.10;32.90;;;;;;5031827;28;20044;-62
2021/03/01 09:45:21;;;;;;;2.60;2.00;;;23.00;32.10;;;;;;5033844;28;20025;-63
2021/03/01 09:47:49;;;;;;;2.30;1.67;;;22.80;31.60;;;;;;5012085;28;20048;-63
2021/03/01 09:50:17;;;;;;;2.05;1.83;;;22.70;31.90;;;;;;5010961;28;20049;-60
2021/03/01 09:52:45;;;;;;;1.73;1.35;;;22.60;32.20;;;;;;5012322;28;20046;-62
2021/03/01 09:55:11;;;;;;;2.03;1.75;;;22.60;32.30;;;;;;4993541;28;20022;-60
2021/03/01 09:57:37;;;;;;;2.20;1.65;;;22.60;32.50;;;;;;5012127;28;20046;-62
2021/03/01 10:00:39;;;;;;;1.92;1.63;;;22.60;32.60;;;;;;5010611;28;20044;-59
2021/03/01 10:03:05;;;;;;;2.50;1.60;;;22.60;32.60;;;;;;4937063;29;20059;-59
2021/03/01 10:05:33;;;;;;;2.17;1.58;;;22.60;32.70;;;;;;4999344;28;20541;-63
2021/03/01 10:08:06;;;;;;;2.03;1.52;;;22.70;32.90;;;;;;5011555;28;20071;-63
2021/03/01 10:10:36;;;;;;;2.55;1.55;;;22.70;32.90;;;;;;4994104;28;20041;-63
2021/03/01 10:13:03;;;;;;;1.63;1.48;;;22.70;33.00;;;;;;5012380;28;20047;-56
2021/03/01 10:15:40;;;;;;;2.65;1.70;;;22.70;33.00;;;;;;5010287;28;20073;-60
2021/03/01 10:18:11;;;;;;;1.33;1.20;;;22.70;33.00;;;;;;4997776;28;20103;-58
2021/03/01 10:20:53;;;;;;;1.67;1.30;;;22.70;33.00;;;;;;5032603;28;20052;-59
2021/03/01 10:23:30;;;;;;;2.55;1.60;;;22.70;33.00;;;;;;5032475;28;20045;-52
2021/03/01 10:26:19;;;;;;;1.85;1.48;;;22.70;33.00;;;;;;5031366;28;20033;-51
2021/03/01 10:29:00;;;;;;;2.10;1.50;;;22.70;33.10;;;;;;5032970;28;20033;-59
2021/03/01 10:31:36;;;;;;;2.22;1.70;;;22.70;33.00;;;;;;5032520;28;20037;-59
2021/03/01 10:34:05;;;;;;;1.88;1.50;;;22.80;33.10;;;;;;5035222;28;20164;-56
2021/03/01 10:36:34;;;;;;;2.10;1.70;;;22.70;33.20;;;;;;5025563;28;20040;-57
2021/03/01 10:39:00;;;;;;;1.73;1.50;;;22.80;33.30;;;;;;5029603;28;20043;-60
2021/03/01 10:41:39;;;;;;;2.55;1.45;;;22.80;33.40;;;;;;5034737;28;20034;-59
2021/03/01 10:44:07;;;;;;;1.65;1.35;;;22.80;33.40;;;;;;5034613;28;20131;-58
2021/03/01 10:46:47;;;;;;;1.45;1.33;;;22.90;33.60;;;;;;5034795;28;20045;-58
2021/03/01 10:49:28;;;;;;;2.38;1.30;;;22.90;33.50;;;;;;5022390;28;20045;-59
2021/03/01 10:51:56;;;;;;;1.95;1.40;;;22.90;33.50;;;;;;5020347;28;20052;-53
2021/03/01 10:54:22;;;;;;;1.85;1.40;;;22.90;33.50;;;;;;5019259;28;20341;-58
2021/03/01 10:56:49;;;;;;;2.25;1.48;;;22.90;33.50;;;;;;5024142;28;20021;-61
2021/03/01 10:59:15;;;;;;;1.65;1.17;;;22.90;33.50;;;;;;5046550;28;20448;-56
2021/03/01 11:01:43;;;;;;;1.52;1.33;;;23.00;33.60;;;;;;5022910;28;20048;-60
2021/03/01 11:04:11;;;;;;;1.45;1.10;;;23.00;33.60;;;;;;5031125;28;20051;-59
2021/03/01 11:06:37;;;;;;;2.17;1.42;;;23.00;33.60;;;;;;5032468;28;20033;-58
2021/03/01 11:09:05;;;;;;;1.80;1.52;;;23.00;33.60;;;;;;5032988;28;20345;-54
2021/03/01 11:11:33;;;;;;;1.50;1.40;;;23.00;33.60;;;;;;5033174;28;20040;-55
2021/03/01 11:13:58;;;;;;;1.85;1.50;;;23.00;33.60;;;;;;5029485;28;20032;-57
2021/03/01 11:16:25;;;;;;;1.40;1.20;;;23.00;33.60;;;;;;5034167;28;20049;-52
2021/03/01 11:18:50;;;;;;;4.18;1.80;;;23.00;33.60;;;;;;5034305;28;20408;-58
2021/03/01 11:21:16;;;;;;;2.45;1.73;;;23.00;33.60;;;;;;5034689;28;20080;-49
2021/03/01 11:23:42;;;;;;;2.10;1.85;;;23.00;33.70;;;;;;5037581;28;20049;-60
2021/03/01 11:26:08;;;;;;;2.70;1.80;;;23.00;33.70;;;;;;5034374;28;20364;-61
2021/03/01 11:28:35;;;;;;;5.03;2.10;;;23.00;33.70;;;;;;5031113;28;20101;-61
2021/03/01 11:31:01;;;;;;;2.35;2.08;;;23.00;33.80;;;;;;5019984;28;20404;-61
2021/03/01 11:33:28;;;;;;;2.28;1.90;;;23.00;33.90;;;;;;5033379;28;20095;-63
2021/03/01 11:35:54;;;;;;;2.88;2.42;;;23.00;33.90;;;;;;5032953;28;20503;-62
2021/03/01 11:38:24;;;;;;;3.40;2.35;;;23.00;33.90;;;;;;5034474;28;20037;-62
2021/03/01 11:40:51;;;;;;;3.38;2.17;;;23.00;33.90;;;;;;5032886;28;20067;-62
2021/03/01 11:43:19;;;;;;;3.55;2.47;;;23.10;34.00;;;;;;5035869;28;20145;-62
2021/03/01 11:45:45;;;;;;;4.18;2.45;;;23.10;34.00;;;;;;5030386;28;20046;-61
2021/03/01 11:48:13;;;;;;;4.10;2.80;;;23.10;34.10;;;;;;5027395;28;20064;-59
2021/03/01 11:50:43;;;;;;;4.28;3.30;;;23.10;34.10;;;;;;5031736;28;20116;-63
2021/03/01 11:53:10;;;;;;;4.47;3.47;;;23.10;34.10;;;;;;5026382;28;20045;-60
2021/03/01 11:55:37;;;;;;;4.28;3.65;;;23.20;34.20;;;;;;5022881;28;20021;-61
2021/03/01 11:58:03;;;;;;;4.47;4.03;;;23.20;34.10;;;;;;5021019;28;20030;-60
2021/03/01 12:00:28;;;;;;;4.70;4.20;;;23.20;34.10;;;;;;5028341;28;20490;-61
2021/03/01 12:02:54;;;;;;;5.82;4.05;;;23.20;34.10;;;;;;5021345;28;20042;-58
2021/03/01 12:05:20;;;;;;;4.72;4.28;;;23.30;34.20;;;;;;5022970;28;20087;-60
2021/03/01 12:07:47;;;;;;;5.82;3.95;;;23.30;34.20;;;;;;5027059;28;20124;-61
2021/03/01 12:10:13;;;;;;;7.13;4.30;;;23.30;34.20;;;;;;5025935;28;20021;-61
2021/03/01 12:12:39;;;;;;;5.53;4.95;;;23.30;34.10;;;;;;5024856;28;20030;-61
2021/03/01 12:15:07;;;;;;;5.68;4.40;;;23.30;34.20;;;;;;5026942;28;20037;-61
2021/03/01 12:17:33;;;;;;;5.65;4.93;;;23.30;34.10;;;;;;5029710;28;20034;-60
2021/03/01 12:19:59;;;;;;;5.95;5.20;;;23.30;34.10;;;;;;5027759;28;20112;-60
2021/03/01 12:22:25;;;;;;;6.15;5.55;;;23.30;34.10;;;;;;5026064;28;20493;-60
2021/03/01 12:24:51;;;;;;;9.20;7.18;;;23.30;34.10;;;;;;5026631;28;20040;-61
2021/03/01 12:27:17;;;;;;;7.85;6.75;;;23.30;34.10;;;;;;5022595;28;20049;-60
2021/03/01 12:29:43;;;;;;;8.23;7.40;;;23.30;34.10;;;;;;5028732;28;20040;-49
2021/03/01 12:32:08;;;;;;;7.90;7.03;;;23.30;34.10;;;;;;5025185;28;20033;-57
2021/03/01 12:34:37;;;;;;;7.68;6.82;;;23.40;34.20;;;;;;5023225;28;20026;-56
2021/03/01 12:37:03;;;;;;;9.25;7.63;;;23.30;34.20;;;;;;5024092;28;20029;-53
2021/03/01 12:39:30;;;;;;;8.93;7.20;;;23.40;34.30;;;;;;5027853;28;20449;-56
2021/03/01 12:41:56;;;;;;;9.45;7.75;;;23.40;34.30;;;;;;5020996;28;20085;-60
2021/03/01 12:44:22;;;;;;;8.80;7.50;;;23.40;34.30;;;;;;5025712;28;20029;-60
2021/03/01 12:46:48;;;;;;;8.35;7.47;;;23.40;34.30;;;;;;5023227;28;20036;-55
2021/03/01 12:49:14;;;;;;;9.13;7.90;;;23.50;34.40;;;;;;5019689;28;20060;-57
2021/03/01 12:51:40;;;;;;;10.15;8.60;;;23.50;34.30;;;;;;5024631;28;20026;-55
2021/03/01 12:54:06;;;;;;;9.18;7.93;;;23.50;34.30;;;;;;5026097;28;20029;-58
2021/03/01 12:56:32;;;;;;;9.88;8.68;;;23.50;34.30;;;;;;5026147;28;20437;-57
2021/03/01 12:58:57;;;;;;;10.77;9.20;;;23.50;34.30;;;;;;5022189;28;20075;-54